sensor_id;sensor_type;location;lat;lon;timestamp;pressure;altitude;pressure_sealevel;temperature;humidity
6567;BME280;3317;43.994;22.878;2022-08-05T00:02:19;100850.03;;;28.52;35.65
6567;BME280;3317;43.994;22.878;2022-08-05T00:04:48;100856.16;;;28.49;36.21
6567;BME280;3317;43.994;22.878;2022-08-05T00:07:15;100842.47;;;28.47;36.06
6567;BME280;3317;43.994;22.878;2022-08-05T00:09:42;100845.25;;;28.42;36.33
6567;BME280;3317;43.994;22.878;2022-08-05T00:12:11;100849.72;;;28.38;36.68
6567;BME280;3317;43.994;22.878;2022-08-05T00:14:38;100850.22;;;28.35;36.56
6567;BME280;3317;43.994;22.878;2022-08-05T00:17:05;100837.97;;;28.31;36.36
6567;BME280;3317;43.994;22.878;2022-08-05T00:19:32;100840.44;;;28.27;36.58
6567;BME280;3317;43.994;22.878;2022-08-05T00:22:00;100841.84;;;28.24;36.54
6567;BME280;3317;43.994;22.878;2022-08-05T00:24:29;100840.44;;;28.22;36.11
6567;BME280;3317;43.994;22.878;2022-08-05T00:26:56;100849.03;;;28.20;36.02
6567;BME280;3317;43.994;22.878;2022-08-05T00:29:24;100844.59;;;28.19;35.12
6567;BME280;3317;43.994;22.878;2022-08-05T00:31:52;100844.03;;;28.17;35.10
6567;BME280;3317;43.994;22.878;2022-08-05T00:34:20;100849.00;;;28.15;36.24
6567;BME280;3317;43.994;22.878;2022-08-05T00:36:47;100843.97;;;28.12;36.35
6567;BME280;3317;43.994;22.878;2022-08-05T00:39:16;100824.97;;;27.99;37.05
6567;BME280;3317;43.994;22.878;2022-08-05T00:41:45;100843.63;;;28.03;37.02
6567;BME280;3317;43.994;22.878;2022-08-05T00:44:12;100843.84;;;27.96;37.09
6567;BME280;3317;43.994;22.878;2022-08-05T00:46:39;100839.13;;;27.97;37.03
6567;BME280;3317;43.994;22.878;2022-08-05T00:49:06;100841.38;;;27.95;37.06
6567;BME280;3317;43.994;22.878;2022-08-05T00:51:33;100814.53;;;27.78;37.58
6567;BME280;3317;43.994;22.878;2022-08-05T00:54:01;100833.78;;;27.85;37.25
6567;BME280;3317;43.994;22.878;2022-08-05T00:56:30;100841.59;;;27.88;36.37
6567;BME280;3317;43.994;22.878;2022-08-05T00:58:57;100838.50;;;27.85;37.18
6567;BME280;3317;43.994;22.878;2022-08-05T01:01:24;100853.69;;;27.66;37.99
6567;BME280;3317;43.994;22.878;2022-08-05T01:03:51;100821.72;;;27.41;38.19
6567;BME280;3317;43.994;22.878;2022-08-05T01:06:18;100845.66;;;27.42;38.44
6567;BME280;3317;43.994;22.878;2022-08-05T01:08:45;100845.66;;;27.42;38.18
6567;BME280;3317;43.994;22.878;2022-08-05T01:11:16;100842.84;;;27.37;38.74
6567;BME280;3317;43.994;22.878;2022-08-05T01:13:54;100842.31;;;27.40;38.42
6567;BME280;3317;43.994;22.878;2022-08-05T01:16:26;100843.94;;;27.36;39.32
6567;BME280;3317;43.994;22.878;2022-08-05T01:18:59;100836.72;;;27.35;38.61
6567;BME280;3317;43.994;22.878;2022-08-05T01:21:48;100828.03;;;27.26;38.83
6567;BME280;3317;43.994;22.878;2022-08-05T01:24:40;100833.63;;;27.32;38.18
6567;BME280;3317;43.994;22.878;2022-08-05T01:27:19;100840.03;;;27.32;38.04
6567;BME280;3317;43.994;22.878;2022-08-05T01:29:55;100840.28;;;27.31;38.67
6567;BME280;3317;43.994;22.878;2022-08-05T01:32:26;100840.53;;;27.29;39.06
6567;BME280;3317;43.994;22.878;2022-08-05T01:35:00;100827.94;;;27.21;38.95
6567;BME280;3317;43.994;22.878;2022-08-05T01:37:34;100841.06;;;27.26;39.32
6567;BME280;3317;43.994;22.878;2022-08-05T01:40:03;100839.41;;;27.25;38.97
6567;BME280;3317;43.994;22.878;2022-08-05T01:42:32;100836.03;;;27.23;38.81
6567;BME280;3317;43.994;22.878;2022-08-05T01:45:02;100834.06;;;27.18;38.67
6567;BME280;3317;43.994;22.878;2022-08-05T01:47:33;100834.88;;;27.19;38.40
6567;BME280;3317;43.994;22.878;2022-08-05T01:50:03;100832.91;;;27.14;38.89
6567;BME280;3317;43.994;22.878;2022-08-05T01:52:33;100834.00;;;27.13;38.85
6567;BME280;3317;43.994;22.878;2022-08-05T01:55:06;100840.97;;;27.16;38.35
6567;BME280;3317;43.994;22.878;2022-08-05T01:57:37;100831.44;;;27.06;38.87
6567;BME280;3317;43.994;22.878;2022-08-05T02:00:08;100838.16;;;27.10;39.71
6567;BME280;3317;43.994;22.878;2022-08-05T02:02:38;100817.44;;;26.96;39.61
6567;BME280;3317;43.994;22.878;2022-08-05T02:05:10;100833.94;;;27.08;39.22
6567;BME280;3317;43.994;22.878;2022-08-05T02:07:38;100834.72;;;27.03;39.38
6567;BME280;3317;43.994;22.878;2022-08-05T02:10:08;100839.19;;;27.04;38.85
6567;BME280;3317;43.994;22.878;2022-08-05T02:12:43;100840.88;;;27.05;38.88
6567;BME280;3317;43.994;22.878;2022-08-05T02:15:25;100836.69;;;27.03;39.13
6567;BME280;3317;43.994;22.878;2022-08-05T02:17:58;100846.13;;;27.02;39.83
6567;BME280;3317;43.994;22.878;2022-08-05T02:20:34;100838.91;;;27.01;39.70
6567;BME280;3317;43.994;22.878;2022-08-05T02:23:08;100841.06;;;26.98;39.25
6567;BME280;3317;43.994;22.878;2022-08-05T02:25:40;100845.50;;;26.94;38.11
6567;BME280;3317;43.994;22.878;2022-08-05T02:28:09;100841.28;;;26.92;39.25
6567;BME280;3317;43.994;22.878;2022-08-05T02:30:43;100832.22;;;26.79;40.09
6567;BME280;3317;43.994;22.878;2022-08-05T02:33:14;100842.84;;;26.82;40.07
6567;BME280;3317;43.994;22.878;2022-08-05T02:35:42;100835.47;;;26.71;39.64
6567;BME280;3317;43.994;22.878;2022-08-05T02:38:11;100824.56;;;26.64;40.15
6567;BME280;3317;43.994;22.878;2022-08-05T02:40:41;100848.81;;;26.69;40.53
6567;BME280;3317;43.994;22.878;2022-08-05T02:43:10;100846.28;;;26.67;40.44
6567;BME280;3317;43.994;22.878;2022-08-05T02:45:39;100844.56;;;26.61;40.90
6567;BME280;3317;43.994;22.878;2022-08-05T02:48:08;100831.09;;;26.53;40.70
6567;BME280;3317;43.994;22.878;2022-08-05T02:50:36;100849.25;;;26.61;40.46
6567;BME280;3317;43.994;22.878;2022-08-05T02:53:04;100845.81;;;26.53;40.38
6567;BME280;3317;43.994;22.878;2022-08-05T02:55:31;100843.50;;;26.45;40.45
6567;BME280;3317;43.994;22.878;2022-08-05T02:58:02;100852.38;;;26.42;40.54
6567;BME280;3317;43.994;22.878;2022-08-05T03:00:29;100851.53;;;26.41;40.24
6567;BME280;3317;43.994;22.878;2022-08-05T03:03:00;100855.06;;;26.37;40.29
6567;BME280;3317;43.994;22.878;2022-08-05T03:05:28;100860.63;;;26.37;40.31
6567;BME280;3317;43.994;22.878;2022-08-05T03:07:55;100856.16;;;26.36;40.12
6567;BME280;3317;43.994;22.878;2022-08-05T03:10:23;100849.44;;;26.32;40.85
6567;BME280;3317;43.994;22.878;2022-08-05T03:12:50;100858.88;;;26.31;40.98
6567;BME280;3317;43.994;22.878;2022-08-05T03:15:19;100866.59;;;26.28;41.04
6567;BME280;3317;43.994;22.878;2022-08-05T03:17:47;100859.91;;;26.24;41.08
6567;BME280;3317;43.994;22.878;2022-08-05T03:20:15;100858.56;;;26.27;40.60
6567;BME280;3317;43.994;22.878;2022-08-05T03:22:42;100806.13;;;25.91;40.42
6567;BME280;3317;43.994;22.878;2022-08-05T03:25:10;100876.56;;;26.24;39.78
6567;BME280;3317;43.994;22.878;2022-08-05T03:27:37;100865.97;;;26.21;39.98
6567;BME280;3317;43.994;22.878;2022-08-05T03:30:05;100860.94;;;26.18;40.42
6567;BME280;3317;43.994;22.878;2022-08-05T03:32:33;100867.81;;;26.15;41.26
6567;BME280;3317;43.994;22.878;2022-08-05T03:35:00;100855.84;;;26.15;41.54
6567;BME280;3317;43.994;22.878;2022-08-05T03:37:32;100820.47;;;25.88;41.37
6567;BME280;3317;43.994;22.878;2022-08-05T03:39:59;100851.25;;;26.04;41.25
6567;BME280;3317;43.994;22.878;2022-08-05T03:42:28;100867.47;;;26.12;41.23
6567;BME280;3317;43.994;22.878;2022-08-05T03:44:55;100877.75;;;26.11;41.11
6567;BME280;3317;43.994;22.878;2022-08-05T03:47:22;100874.38;;;26.09;40.69
6567;BME280;3317;43.994;22.878;2022-08-05T03:49:49;100875.72;;;26.07;41.11
6567;BME280;3317;43.994;22.878;2022-08-05T03:52:20;100866.22;;;26.02;41.07
6567;BME280;3317;43.994;22.878;2022-08-05T03:54:53;100863.31;;;25.92;41.32
6567;BME280;3317;43.994;22.878;2022-08-05T03:57:23;100879.59;;;26.06;41.04
6567;BME280;3317;43.994;22.878;2022-08-05T03:59:57;100880.19;;;26.08;40.75
6567;BME280;3317;43.994;22.878;2022-08-05T04:02:29;100882.44;;;26.11;40.99
6567;BME280;3317;43.994;22.878;2022-08-05T04:04:57;100884.66;;;26.09;41.71
6567;BME280;3317;43.994;22.878;2022-08-05T04:07:25;100880.25;;;26.13;41.92
6567;BME280;3317;43.994;22.878;2022-08-05T04:09:55;100874.69;;;26.13;41.84
6567;BME280;3317;43.994;22.878;2022-08-05T04:12:24;100876.38;;;26.14;41.58
6567;BME280;3317;43.994;22.878;2022-08-05T04:14:51;100877.09;;;26.21;40.86
6567;BME280;3317;43.994;22.878;2022-08-05T04:17:18;100879.34;;;26.24;41.43
6567;BME280;3317;43.994;22.878;2022-08-05T04:19:48;100883.28;;;26.28;41.03
6567;BME280;3317;43.994;22.878;2022-08-05T04:22:15;100875.22;;;26.27;41.27
6567;BME280;3317;43.994;22.878;2022-08-05T04:24:44;100879.28;;;26.41;41.27
6567;BME280;3317;43.994;22.878;2022-08-05T04:27:14;100869.53;;;26.39;41.29
6567;BME280;3317;43.994;22.878;2022-08-05T04:29:41;100889.97;;;26.50;41.17
6567;BME280;3317;43.994;22.878;2022-08-05T04:32:15;100893.66;;;26.55;41.32
6567;BME280;3317;43.994;22.878;2022-08-05T04:34:42;100901.28;;;26.65;40.82
6567;BME280;3317;43.994;22.878;2022-08-05T04:37:09;100891.06;;;26.71;41.10
6567;BME280;3317;43.994;22.878;2022-08-05T04:39:36;100896.16;;;26.79;41.01
6567;BME280;3317;43.994;22.878;2022-08-05T04:42:04;100895.75;;;26.88;41.19
6567;BME280;3317;43.994;22.878;2022-08-05T04:44:32;100886.38;;;26.94;41.31
6567;BME280;3317;43.994;22.878;2022-08-05T04:47:00;100885.88;;;27.02;40.83
6567;BME280;3317;43.994;22.878;2022-08-05T04:49:26;100887.09;;;27.11;40.76
6567;BME280;3317;43.994;22.878;2022-08-05T04:51:53;100888.81;;;27.18;40.60
6567;BME280;3317;43.994;22.878;2022-08-05T04:54:20;100885.59;;;27.26;40.94
6567;BME280;3317;43.994;22.878;2022-08-05T04:56:51;100886.00;;;27.40;40.71
6567;BME280;3317;43.994;22.878;2022-08-05T04:59:19;100889.41;;;27.47;40.83
6567;BME280;3317;43.994;22.878;2022-08-05T05:01:48;100885.38;;;27.60;40.64
6567;BME280;3317;43.994;22.878;2022-08-05T05:04:15;100877.06;;;27.65;40.32
6567;BME280;3317;43.994;22.878;2022-08-05T05:06:44;100878.28;;;27.80;40.30
6567;BME280;3317;43.994;22.878;2022-08-05T05:09:12;100886.16;;;27.88;40.07
6567;BME280;3317;43.994;22.878;2022-08-05T05:11:38;100880.91;;;27.97;40.14
6567;BME280;3317;43.994;22.878;2022-08-05T05:14:06;100880.44;;;28.10;40.04
6567;BME280;3317;43.994;22.878;2022-08-05T05:16:33;100880.81;;;28.19;39.77
6567;BME280;3317;43.994;22.878;2022-08-05T05:19:04;100881.44;;;28.32;39.66
6567;BME280;3317;43.994;22.878;2022-08-05T05:21:31;100884.28;;;28.42;39.85
6567;BME280;3317;43.994;22.878;2022-08-05T05:23:58;100881.56;;;28.58;39.62
6567;BME280;3317;43.994;22.878;2022-08-05T05:26:25;100880.22;;;28.71;39.40
6567;BME280;3317;43.994;22.878;2022-08-05T05:28:52;100854.00;;;28.72;39.23
6567;BME280;3317;43.994;22.878;2022-08-05T05:31:19;100875.03;;;28.95;38.85
6567;BME280;3317;43.994;22.878;2022-08-05T05:33:48;100871.44;;;29.10;38.67
6567;BME280;3317;43.994;22.878;2022-08-05T05:36:17;100873.41;;;29.30;38.24
6567;BME280;3317;43.994;22.878;2022-08-05T05:38:44;100885.47;;;29.46;37.90
6567;BME280;3317;43.994;22.878;2022-08-05T05:41:11;100884.63;;;29.56;38.01
6567;BME280;3317;43.994;22.878;2022-08-05T05:43:38;100830.16;;;29.38;36.69
6567;BME280;3317;43.994;22.878;2022-08-05T05:46:05;100885.19;;;29.79;36.66
6567;BME280;3317;43.994;22.878;2022-08-05T05:48:33;100890.19;;;29.98;36.25
6567;BME280;3317;43.994;22.878;2022-08-05T05:51:00;100880.13;;;30.12;35.80
6567;BME280;3317;43.994;22.878;2022-08-05T05:53:31;100891.56;;;30.26;35.52
6567;BME280;3317;43.994;22.878;2022-08-05T05:55:59;100893.44;;;30.41;35.28
6567;BME280;3317;43.994;22.878;2022-08-05T05:58:26;100891.44;;;30.57;35.64
6567;BME280;3317;43.994;22.878;2022-08-05T06:00:53;100901.78;;;30.67;34.82
6567;BME280;3317;43.994;22.878;2022-08-05T06:03:22;100891.09;;;30.80;34.57
6567;BME280;3317;43.994;22.878;2022-08-05T06:05:49;100891.59;;;30.92;33.99
6567;BME280;3317;43.994;22.878;2022-08-05T06:08:16;100896.31;;;31.02;34.40
6567;BME280;3317;43.994;22.878;2022-08-05T06:10:45;100894.53;;;31.16;34.31
6567;BME280;3317;43.994;22.878;2022-08-05T06:13:12;100892.56;;;31.17;33.14
6567;BME280;3317;43.994;22.878;2022-08-05T06:15:39;100898.84;;;30.98;33.03
6567;BME280;3317;43.994;22.878;2022-08-05T06:18:06;100898.84;;;30.93;33.87
6567;BME280;3317;43.994;22.878;2022-08-05T06:20:32;100901.91;;;31.02;34.04
6567;BME280;3317;43.994;22.878;2022-08-05T06:23:00;100898.16;;;31.17;34.01
6567;BME280;3317;43.994;22.878;2022-08-05T06:25:27;100898.06;;;31.38;33.92
6567;BME280;3317;43.994;22.878;2022-08-05T06:27:55;100903.47;;;31.58;33.21
6567;BME280;3317;43.994;22.878;2022-08-05T06:30:22;100865.41;;;31.57;33.76
6567;BME280;3317;43.994;22.878;2022-08-05T06:32:51;100905.41;;;31.98;32.82
6567;BME280;3317;43.994;22.878;2022-08-05T06:35:19;100867.97;;;31.88;32.66
6567;BME280;3317;43.994;22.878;2022-08-05T06:37:46;100899.88;;;32.17;31.96
6567;BME280;3317;43.994;22.878;2022-08-05T06:40:13;100899.47;;;32.29;32.03
6567;BME280;3317;43.994;22.878;2022-08-05T06:42:40;100907.22;;;32.42;32.48
6567;BME280;3317;43.994;22.878;2022-08-05T06:45:09;100895.88;;;32.53;31.95
6567;BME280;3317;43.994;22.878;2022-08-05T06:47:36;100913.44;;;32.83;31.79
6567;BME280;3317;43.994;22.878;2022-08-05T06:50:04;100901.22;;;32.98;31.64
6567;BME280;3317;43.994;22.878;2022-08-05T06:52:31;100911.31;;;33.18;31.31
6567;BME280;3317;43.994;22.878;2022-08-05T06:54:58;100917.28;;;33.31;30.74
6567;BME280;3317;43.994;22.878;2022-08-05T06:57:25;100915.16;;;33.41;30.48
6567;BME280;3317;43.994;22.878;2022-08-05T06:59:53;100910.84;;;33.49;30.37
6567;BME280;3317;43.994;22.878;2022-08-05T07:02:22;100909.69;;;33.50;29.91
6567;BME280;3317;43.994;22.878;2022-08-05T07:04:49;100907.88;;;33.60;30.33
6567;BME280;3317;43.994;22.878;2022-08-05T07:07:17;100914.25;;;33.79;30.65
6567;BME280;3317;43.994;22.878;2022-08-05T07:09:44;100902.78;;;33.95;30.15
6567;BME280;3317;43.994;22.878;2022-08-05T07:12:11;100775.44;;;33.33;29.87
6567;BME280;3317;43.994;22.878;2022-08-05T07:14:58;100903.03;;;34.40;29.75
6567;BME280;3317;43.994;22.878;2022-08-05T07:17:44;100903.16;;;34.63;29.48
6567;BME280;3317;43.994;22.878;2022-08-05T07:20:11;100903.84;;;34.83;29.44
6567;BME280;3317;43.994;22.878;2022-08-05T07:22:38;100895.91;;;34.99;29.03
6567;BME280;3317;43.994;22.878;2022-08-05T07:25:06;100908.31;;;35.12;28.00
6567;BME280;3317;43.994;22.878;2022-08-05T07:27:33;100915.41;;;34.95;27.42
6567;BME280;3317;43.994;22.878;2022-08-05T07:30:00;100906.81;;;34.64;28.04
6567;BME280;3317;43.994;22.878;2022-08-05T07:32:28;100909.81;;;34.67;28.80
6567;BME280;3317;43.994;22.878;2022-08-05T07:34:56;100907.72;;;34.87;29.01
6567;BME280;3317;43.994;22.878;2022-08-05T07:37:25;100901.53;;;35.13;29.54
6567;BME280;3317;43.994;22.878;2022-08-05T07:39:52;100904.25;;;35.41;28.97
6567;BME280;3317;43.994;22.878;2022-08-05T07:42:19;100907.91;;;35.64;28.68
6567;BME280;3317;43.994;22.878;2022-08-05T07:44:46;100898.09;;;35.85;27.89
6567;BME280;3317;43.994;22.878;2022-08-05T07:47:13;100900.91;;;36.07;27.33
6567;BME280;3317;43.994;22.878;2022-08-05T07:49:41;100898.69;;;36.27;27.83
6567;BME280;3317;43.994;22.878;2022-08-05T07:52:10;100902.22;;;36.42;26.94
6567;BME280;3317;43.994;22.878;2022-08-05T07:54:37;100901.97;;;36.61;27.07
6567;BME280;3317;43.994;22.878;2022-08-05T07:57:04;100900.69;;;36.85;26.91
6567;BME280;3317;43.994;22.878;2022-08-05T07:59:31;100850.69;;;36.68;27.01
6567;BME280;3317;43.994;22.878;2022-08-05T08:01:58;100895.44;;;37.18;26.62
6567;BME280;3317;43.994;22.878;2022-08-05T08:04:26;100907.03;;;37.43;26.86
6567;BME280;3317;43.994;22.878;2022-08-05T08:06:54;100900.41;;;37.57;25.24
6567;BME280;3317;43.994;22.878;2022-08-05T08:09:24;100902.03;;;37.67;25.39
6567;BME280;3317;43.994;22.878;2022-08-05T08:11:52;100907.47;;;37.89;25.69
6567;BME280;3317;43.994;22.878;2022-08-05T08:14:22;100901.31;;;37.96;24.69
6567;BME280;3317;43.994;22.878;2022-08-05T08:16:49;100826.06;;;37.65;25.01
6567;BME280;3317;43.994;22.878;2022-08-05T08:19:17;100898.53;;;38.26;24.78
6567;BME280;3317;43.994;22.878;2022-08-05T08:21:45;100893.97;;;38.43;24.39
6567;BME280;3317;43.994;22.878;2022-08-05T08:24:12;100889.22;;;38.65;24.91
6567;BME280;3317;43.994;22.878;2022-08-05T08:26:41;100893.09;;;38.81;24.27
6567;BME280;3317;43.994;22.878;2022-08-05T08:29:09;100889.22;;;38.86;24.28
6567;BME280;3317;43.994;22.878;2022-08-05T08:31:36;100898.25;;;39.09;24.73
6567;BME280;3317;43.994;22.878;2022-08-05T08:34:03;100890.72;;;39.13;23.96
6567;BME280;3317;43.994;22.878;2022-08-05T08:36:32;100888.50;;;39.19;23.86
6567;BME280;3317;43.994;22.878;2022-08-05T08:38:59;100874.91;;;39.12;23.41
6567;BME280;3317;43.994;22.878;2022-08-05T08:41:29;100888.56;;;39.32;24.02
6567;BME280;3317;43.994;22.878;2022-08-05T08:44:04;100878.47;;;39.43;23.71
6567;BME280;3317;43.994;22.878;2022-08-05T08:46:33;100881.91;;;39.49;23.39
6567;BME280;3317;43.994;22.878;2022-08-05T08:49:04;100886.94;;;39.64;23.39
6567;BME280;3317;43.994;22.878;2022-08-05T08:51:32;100876.78;;;39.63;23.44
6567;BME280;3317;43.994;22.878;2022-08-05T08:53:59;100886.97;;;39.77;22.87
6567;BME280;3317;43.994;22.878;2022-08-05T08:56:26;100887.72;;;39.98;23.19
6567;BME280;3317;43.994;22.878;2022-08-05T08:58:54;100884.44;;;40.21;23.18
6567;BME280;3317;43.994;22.878;2022-08-05T09:01:25;100873.47;;;40.32;22.35
6567;BME280;3317;43.994;22.878;2022-08-05T09:03:53;100858.78;;;40.43;22.64
6567;BME280;3317;43.994;22.878;2022-08-05T09:06:20;100865.50;;;40.63;22.40
6567;BME280;3317;43.994;22.878;2022-08-05T09:08:48;100867.63;;;40.78;23.27
6567;BME280;3317;43.994;22.878;2022-08-05T09:11:15;100855.16;;;40.95;22.67
6567;BME280;3317;43.994;22.878;2022-08-05T09:13:42;100858.38;;;40.94;22.29
6567;BME280;3317;43.994;22.878;2022-08-05T09:16:11;100856.75;;;40.68;22.04
6567;BME280;3317;43.994;22.878;2022-08-05T09:18:40;100860.44;;;40.56;22.33
6567;BME280;3317;43.994;22.878;2022-08-05T09:21:08;100855.00;;;40.63;22.57
6567;BME280;3317;43.994;22.878;2022-08-05T09:23:35;100856.59;;;40.89;22.58
6567;BME280;3317;43.994;22.878;2022-08-05T09:26:08;100853.63;;;40.98;22.01
6567;BME280;3317;43.994;22.878;2022-08-05T09:28:38;100844.94;;;41.07;21.90
6567;BME280;3317;43.994;22.878;2022-08-05T09:31:10;100831.63;;;41.23;21.77
6567;BME280;3317;43.994;22.878;2022-08-05T09:33:51;100834.88;;;41.54;22.14
6567;BME280;3317;43.994;22.878;2022-08-05T09:36:19;100840.13;;;41.52;21.32
6567;BME280;3317;43.994;22.878;2022-08-05T09:38:56;100831.88;;;41.47;21.58
6567;BME280;3317;43.994;22.878;2022-08-05T09:41:24;100841.53;;;41.58;21.17
6567;BME280;3317;43.994;22.878;2022-08-05T09:43:52;100837.97;;;41.33;21.07
6567;BME280;3317;43.994;22.878;2022-08-05T09:46:24;100823.75;;;41.04;21.37
6567;BME280;3317;43.994;22.878;2022-08-05T09:48:54;100826.91;;;40.87;21.28
6567;BME280;3317;43.994;22.878;2022-08-05T09:51:31;100815.16;;;40.47;21.82
6567;BME280;3317;43.994;22.878;2022-08-05T09:53:58;100822.28;;;40.41;22.25
6567;BME280;3317;43.994;22.878;2022-08-05T09:56:29;100825.34;;;40.36;22.43
6567;BME280;3317;43.994;22.878;2022-08-05T09:59:02;100822.72;;;40.43;22.67
6567;BME280;3317;43.994;22.878;2022-08-05T10:01:30;100819.47;;;40.69;21.75
6567;BME280;3317;43.994;22.878;2022-08-05T10:04:02;100817.81;;;40.68;22.06
6567;BME280;3317;43.994;22.878;2022-08-05T10:06:30;100818.28;;;40.71;22.23
6567;BME280;3317;43.994;22.878;2022-08-05T10:09:10;100814.84;;;40.77;21.67
6567;BME280;3317;43.994;22.878;2022-08-05T10:11:38;100817.25;;;40.50;21.66
6567;BME280;3317;43.994;22.878;2022-08-05T10:14:20;100817.50;;;40.58;22.04
6567;BME280;3317;43.994;22.878;2022-08-05T10:16:48;100809.22;;;40.52;21.71
6567;BME280;3317;43.994;22.878;2022-08-05T10:19:17;100812.78;;;40.37;21.61
6567;BME280;3317;43.994;22.878;2022-08-05T10:21:44;100801.44;;;40.12;21.86
6567;BME280;3317;43.994;22.878;2022-08-05T10:24:15;100811.59;;;40.01;22.09
6567;BME280;3317;43.994;22.878;2022-08-05T10:26:45;100795.56;;;40.30;22.43
6567;BME280;3317;43.994;22.878;2022-08-05T10:29:12;100795.88;;;40.40;21.46
6567;BME280;3317;43.994;22.878;2022-08-05T10:31:40;100792.66;;;40.54;21.36
6567;BME280;3317;43.994;22.878;2022-08-05T10:34:08;100788.31;;;40.32;21.22
6567;BME280;3317;43.994;22.878;2022-08-05T10:36:39;100784.41;;;40.37;21.26
6567;BME280;3317;43.994;22.878;2022-08-05T10:39:10;100781.94;;;40.35;20.92
6567;BME280;3317;43.994;22.878;2022-08-05T10:41:45;100778.75;;;40.12;20.09
6567;BME280;3317;43.994;22.878;2022-08-05T10:44:17;100763.28;;;39.84;20.47
6567;BME280;3317;43.994;22.878;2022-08-05T10:46:47;100740.09;;;39.82;20.92
6567;BME280;3317;43.994;22.878;2022-08-05T10:49:15;100751.53;;;40.23;21.13
6567;BME280;3317;43.994;22.878;2022-08-05T10:51:45;100767.38;;;40.37;20.14
6567;BME280;3317;43.994;22.878;2022-08-05T10:54:12;100765.72;;;40.36;20.10
6567;BME280;3317;43.994;22.878;2022-08-05T10:56:44;100755.81;;;40.17;20.24
6567;BME280;3317;43.994;22.878;2022-08-05T10:59:16;100760.91;;;40.36;20.25
6567;BME280;3317;43.994;22.878;2022-08-05T11:01:43;100757.66;;;40.25;20.37
6567;BME280;3317;43.994;22.878;2022-08-05T11:04:12;100735.59;;;40.06;20.14
6567;BME280;3317;43.994;22.878;2022-08-05T11:07:04;100749.66;;;40.27;20.74
6567;BME280;3317;43.994;22.878;2022-08-05T11:09:37;100735.41;;;40.52;19.76
6567;BME280;3317;43.994;22.878;2022-08-05T11:12:41;100746.13;;;40.59;19.78
6567;BME280;3317;43.994;22.878;2022-08-05T11:15:15;100746.09;;;40.43;20.03
6567;BME280;3317;43.994;22.878;2022-08-05T11:17:44;100732.25;;;40.41;20.23
6567;BME280;3317;43.994;22.878;2022-08-05T11:20:34;100735.78;;;40.51;19.86
6567;BME280;3317;43.994;22.878;2022-08-05T11:26:10;100728.94;;;40.80;19.74
6567;BME280;3317;43.994;22.878;2022-08-05T11:28:43;100697.81;;;40.72;19.43
6567;BME280;3317;43.994;22.878;2022-08-05T11:31:34;100716.41;;;40.81;18.93
6567;BME280;3317;43.994;22.878;2022-08-05T11:34:06;100725.44;;;40.59;18.49
6567;BME280;3317;43.994;22.878;2022-08-05T11:36:44;100720.69;;;40.22;18.92
6567;BME280;3317;43.994;22.878;2022-08-05T11:39:14;100724.75;;;39.83;19.11
6567;BME280;3317;43.994;22.878;2022-08-05T11:41:49;100722.97;;;39.79;19.91
6567;BME280;3317;43.994;22.878;2022-08-05T11:44:19;100726.72;;;39.83;19.76
6567;BME280;3317;43.994;22.878;2022-08-05T11:46:48;100708.41;;;39.80;19.16
6567;BME280;3317;43.994;22.878;2022-08-05T11:49:17;100710.31;;;39.64;19.15
6567;BME280;3317;43.994;22.878;2022-08-05T11:51:47;100714.91;;;39.81;20.17
6567;BME280;3317;43.994;22.878;2022-08-05T11:54:21;100667.75;;;39.39;18.67
6567;BME280;3317;43.994;22.878;2022-08-05T11:56:53;100700.69;;;39.31;18.51
6567;BME280;3317;43.994;22.878;2022-08-05T11:59:22;100715.41;;;39.12;18.67
6567;BME280;3317;43.994;22.878;2022-08-05T12:01:55;100715.66;;;39.07;19.40
6567;BME280;3317;43.994;22.878;2022-08-05T12:04:23;100714.13;;;39.22;18.81
6567;BME280;3317;43.994;22.878;2022-08-05T12:06:51;100709.72;;;39.58;19.40
6567;BME280;3317;43.994;22.878;2022-08-05T12:09:22;100706.19;;;39.86;18.95
6567;BME280;3317;43.994;22.878;2022-08-05T12:11:51;100700.00;;;40.09;18.94
6567;BME280;3317;43.994;22.878;2022-08-05T12:14:18;100696.19;;;40.42;18.27
6567;BME280;3317;43.994;22.878;2022-08-05T12:16:46;100689.47;;;40.63;17.80
6567;BME280;3317;43.994;22.878;2022-08-05T12:19:14;100694.41;;;40.94;17.71
6567;BME280;3317;43.994;22.878;2022-08-05T12:21:43;100695.38;;;40.99;17.91
6567;BME280;3317;43.994;22.878;2022-08-05T12:24:12;100687.81;;;40.90;17.83
6567;BME280;3317;43.994;22.878;2022-08-05T12:26:40;100684.59;;;40.92;18.09
6567;BME280;3317;43.994;22.878;2022-08-05T12:29:12;100687.72;;;40.87;17.73
6567;BME280;3317;43.994;22.878;2022-08-05T12:31:44;100678.31;;;40.70;17.58
6567;BME280;3317;43.994;22.878;2022-08-05T12:34:13;100673.16;;;40.60;18.15
6567;BME280;3317;43.994;22.878;2022-08-05T12:36:42;100667.69;;;40.38;17.93
6567;BME280;3317;43.994;22.878;2022-08-05T12:39:10;100673.25;;;40.35;18.51
6567;BME280;3317;43.994;22.878;2022-08-05T12:41:39;100666.84;;;40.38;17.94
6567;BME280;3317;43.994;22.878;2022-08-05T12:44:08;100659.78;;;40.32;17.62
6567;BME280;3317;43.994;22.878;2022-08-05T12:46:38;100673.53;;;40.30;17.86
6567;BME280;3317;43.994;22.878;2022-08-05T12:49:06;100662.31;;;40.08;18.02
6567;BME280;3317;43.994;22.878;2022-08-05T12:51:45;100659.69;;;40.16;18.37
6567;BME280;3317;43.994;22.878;2022-08-05T12:54:21;100662.75;;;40.23;18.42
6567;BME280;3317;43.994;22.878;2022-08-05T12:56:51;100658.50;;;40.17;17.87
6567;BME280;3317;43.994;22.878;2022-08-05T12:59:19;100658.97;;;40.19;18.46
6567;BME280;3317;43.994;22.878;2022-08-05T13:02:00;100651.97;;;40.29;18.54
6567;BME280;3317;43.994;22.878;2022-08-05T13:04:31;100645.47;;;40.28;18.58
6567;BME280;3317;43.994;22.878;2022-08-05T13:07:00;100623.31;;;40.05;18.85
6567;BME280;3317;43.994;22.878;2022-08-05T13:09:28;100651.47;;;39.98;17.96
6567;BME280;3317;43.994;22.878;2022-08-05T13:12:01;100640.16;;;39.85;18.42
6567;BME280;3317;43.994;22.878;2022-08-05T13:14:35;100636.00;;;39.70;18.33
6567;BME280;3317;43.994;22.878;2022-08-05T13:17:07;100642.16;;;39.48;18.47